createdAt,value
2018-05-23T00:00:41.119Z,0.00
2018-05-23T00:01:42.210Z,0.00
2018-05-23T00:02:41.072Z,0.00
2018-05-23T00:03:41.081Z,0.00
2018-05-23T00:04:41.015Z,0.00
2018-05-23T00:05:45.709Z,0.00
2018-05-23T00:06:40.988Z,0.00
2018-05-23T00:07:42.038Z,0.00
2018-05-23T00:08:40.940Z,0.00
2018-05-23T00:09:41.036Z,0.00
2018-05-23T00:10:40.916Z,0.00
2018-05-23T00:11:40.938Z,0.00
2018-05-23T00:12:40.857Z,0.00
2018-05-23T00:13:40.838Z,0.00
2018-05-23T00:14:51.712Z,0.00
2018-05-23T00:15:40.793Z,0.00
2018-05-23T00:16:46.721Z,0.00
2018-05-23T00:17:40.741Z,0.00
2018-05-23T00:18:40.793Z,0.00
2018-05-23T00:19:40.713Z,0.00
2018-05-23T00:20:40.680Z,0.00
2018-05-23T00:21:41.731Z,0.00
2018-05-23T00:22:40.639Z,0.00
2018-05-23T00:23:40.718Z,0.00
2018-05-23T00:24:40.596Z,0.00
2018-05-23T00:25:40.620Z,0.00
2018-05-23T00:26:40.557Z,0.00
2018-05-23T00:27:40.640Z,0.00
2018-05-23T00:28:40.513Z,0.00
2018-05-23T00:29:40.482Z,0.00
2018-05-23T00:30:40.488Z,0.00
2018-05-23T00:31:40.487Z,0.00
2018-05-23T00:32:40.427Z,0.00
2018-05-23T00:33:40.402Z,0.00
2018-05-23T00:34:40.384Z,0.00
2018-05-23T00:35:40.352Z,0.00
2018-05-23T00:36:42.448Z,0.00
2018-05-23T00:37:40.313Z,0.00
2018-05-23T00:38:40.412Z,0.00
2018-05-23T00:39:40.278Z,0.00
2018-05-23T00:40:42.386Z,0.00
2018-05-23T00:41:40.280Z,0.00
2018-05-23T00:42:40.253Z,0.00
2018-05-23T00:43:40.194Z,0.00
2018-05-23T00:44:45.283Z,0.00
2018-05-23T00:45:40.149Z,0.00
2018-05-23T00:46:40.126Z,0.00
2018-05-23T00:47:40.188Z,0.00
2018-05-23T00:48:40.089Z,0.00
2018-05-23T00:49:40.081Z,0.00
2018-05-23T00:50:40.041Z,0.00
2018-05-23T00:51:41.159Z,0.00
2018-05-23T00:52:40.012Z,0.00
2018-05-23T00:53:40.003Z,0.00
2018-05-23T00:54:39.960Z,0.00
2018-05-23T00:55:41.034Z,0.00
2018-05-23T00:56:39.920Z,0.00
2018-05-23T00:57:39.926Z,0.00
2018-05-23T00:58:39.888Z,0.00
2018-05-23T00:59:40.995Z,0.00
2018-05-23T01:00:39.826Z,0.00
2018-05-23T01:01:39.873Z,0.00
2018-05-23T01:02:39.785Z,0.00
2018-05-23T01:03:41.979Z,0.00
2018-05-23T01:04:39.756Z,0.00
2018-05-23T01:05:39.775Z,0.00
2018-05-23T01:06:39.706Z,0.00
2018-05-23T01:07:39.793Z,0.00
2018-05-23T01:08:39.659Z,0.00
2018-05-23T01:09:39.695Z,0.00
2018-05-23T01:10:39.602Z,0.00
2018-05-23T01:11:39.640Z,0.00
2018-05-23T01:12:39.631Z,0.00
2018-05-23T01:13:39.556Z,0.00
2018-05-23T01:14:39.659Z,0.00
2018-05-23T01:15:39.498Z,0.00
2018-05-23T01:16:39.576Z,0.00
2018-05-23T01:17:39.474Z,0.00
2018-05-23T01:18:39.443Z,0.00
2018-05-23T01:19:39.436Z,0.00
2018-05-23T01:20:44.172Z,0.00
2018-05-23T01:21:39.381Z,0.00
2018-05-23T01:22:39.376Z,0.00
2018-05-23T01:23:39.349Z,0.00
2018-05-23T01:24:39.326Z,0.00
2018-05-23T01:25:39.414Z,0.00
2018-05-23T01:26:39.274Z,0.00
2018-05-23T01:27:39.257Z,0.00
2018-05-23T01:28:40.353Z,0.00
2018-05-23T01:29:39.209Z,0.00
2018-05-23T01:30:40.253Z,0.00
2018-05-23T01:31:39.174Z,0.00
2018-05-23T01:32:39.255Z,0.00
2018-05-23T01:33:39.110Z,0.00
2018-05-23T01:34:45.701Z,0.00
2018-05-23T01:35:39.088Z,0.00
2018-05-23T01:36:43.709Z,0.00
2018-05-23T01:37:39.033Z,0.00
2018-05-23T01:38:39.108Z,0.00
2018-05-23T01:39:38.992Z,0.00
2018-05-23T01:40:41.064Z,0.00
2018-05-23T01:41:38.964Z,0.00
2018-05-23T01:42:40.035Z,0.00
2018-05-23T01:43:38.901Z,0.00
2018-05-23T01:44:38.925Z,0.00
2018-05-23T01:45:38.865Z,0.00
2018-05-23T01:46:38.938Z,0.00
2018-05-23T01:47:38.827Z,0.00
2018-05-23T01:48:38.864Z,0.00
2018-05-23T01:49:38.787Z,0.00
2018-05-23T01:50:38.868Z,0.00
2018-05-23T01:51:38.744Z,0.00
2018-05-23T01:52:38.772Z,0.00
2018-05-23T01:53:38.677Z,0.00
2018-05-23T01:54:40.749Z,0.00
2018-05-23T01:55:38.651Z,0.00
2018-05-23T01:56:43.221Z,0.00
2018-05-23T01:57:38.600Z,0.00
2018-05-23T01:58:39.635Z,0.00
2018-05-23T01:59:38.553Z,0.00
2018-05-23T02:00:38.536Z,0.00
2018-05-23T02:01:39.586Z,0.00
2018-05-23T02:02:38.481Z,0.00
2018-05-23T02:03:39.583Z,0.00
2018-05-23T02:04:38.458Z,0.00
2018-05-23T02:05:39.494Z,0.00
2018-05-23T02:06:38.415Z,0.00
2018-05-23T02:07:38.477Z,0.00
2018-05-23T02:08:38.376Z,0.00
2018-05-23T02:09:39.423Z,0.00
2018-05-23T02:10:38.324Z,0.00
2018-05-23T02:11:38.297Z,0.00
2018-05-23T02:12:38.276Z,0.00
2018-05-23T02:13:38.267Z,0.00
2018-05-23T02:14:38.244Z,0.00
2018-05-23T02:15:38.317Z,0.00
2018-05-23T02:16:38.193Z,0.00
2018-05-23T02:17:39.275Z,0.00
2018-05-23T02:18:38.162Z,0.00
2018-05-23T02:19:39.167Z,0.00
2018-05-23T02:20:38.091Z,0.00
2018-05-23T02:21:39.168Z,0.00
2018-05-23T02:22:38.069Z,0.00
2018-05-23T02:23:38.072Z,0.00
2018-05-23T02:24:38.012Z,0.00
2018-05-23T02:25:37.996Z,0.00
2018-05-23T02:26:38.086Z,0.00
2018-05-23T02:27:37.946Z,0.00
2018-05-23T02:28:37.927Z,0.00
2018-05-23T02:29:37.913Z,0.00
2018-05-23T02:30:37.909Z,0.00
2018-05-23T02:31:37.854Z,0.00
2018-05-23T02:32:37.847Z,0.00
2018-05-23T02:33:38.846Z,0.00
2018-05-23T02:34:37.803Z,0.00
2018-05-23T02:35:37.874Z,0.00
2018-05-23T02:36:37.757Z,0.00
2018-05-23T02:37:39.792Z,0.00
2018-05-23T02:38:37.721Z,0.00
2018-05-23T02:39:37.687Z,0.00
2018-05-23T02:40:37.762Z,0.00
2018-05-23T02:41:37.653Z,0.00
2018-05-23T02:42:37.626Z,0.00
2018-05-23T02:43:37.589Z,0.00
2018-05-23T02:44:37.585Z,0.00
2018-05-23T02:45:37.605Z,0.00
2018-05-23T02:46:37.543Z,0.00
2018-05-23T02:47:37.621Z,0.00
2018-05-23T02:48:37.516Z,0.00
2018-05-23T02:49:37.529Z,0.00
2018-05-23T02:50:37.468Z,0.00
2018-05-23T02:51:42.240Z,0.00
2018-05-23T02:52:37.391Z,0.00
2018-05-23T02:53:39.531Z,0.00
2018-05-23T02:54:37.344Z,0.00
2018-05-23T02:55:39.415Z,0.00
2018-05-23T02:56:37.318Z,4.00
2018-05-23T02:57:37.424Z,4.00
2018-05-23T02:58:37.274Z,4.00
2018-05-23T02:59:37.245Z,0.00
2018-05-23T03:00:37.235Z,0.00
2018-05-23T03:01:37.229Z,4.00
2018-05-23T03:02:37.177Z,4.00
2018-05-23T03:03:37.203Z,0.00
2018-05-23T03:04:37.149Z,4.00
2018-05-23T03:05:37.224Z,4.00
2018-05-23T03:06:37.123Z,4.00
2018-05-23T03:07:37.125Z,8.00
2018-05-23T03:08:37.048Z,8.00
2018-05-23T03:09:38.059Z,8.00
2018-05-23T03:10:37.008Z,8.00
2018-05-23T03:11:37.053Z,12.00
2018-05-23T03:12:36.948Z,12.00
2018-05-23T03:13:39.030Z,16.00
2018-05-23T03:14:36.925Z,12.00
2018-05-23T03:15:37.386Z,16.00
2018-05-23T03:16:36.880Z,16.00
2018-05-23T03:17:37.911Z,20.00
2018-05-23T03:18:36.828Z,16.00
2018-05-23T03:19:37.831Z,20.00
2018-05-23T03:20:36.794Z,16.00
2018-05-23T03:21:47.793Z,20.00
2018-05-23T03:22:36.722Z,20.00
2018-05-23T03:23:36.827Z,20.00
2018-05-23T03:24:36.748Z,20.00
2018-05-23T03:25:36.753Z,28.00
2018-05-23T03:26:36.656Z,28.00
2018-05-23T03:27:36.643Z,28.00
2018-05-23T03:28:41.264Z,36.00
2018-05-23T03:29:36.597Z,40.00
2018-05-23T03:30:37.595Z,40.00
2018-05-23T03:31:36.560Z,44.00
2018-05-23T03:32:36.588Z,48.00
2018-05-23T03:33:36.509Z,52.00
2018-05-23T03:34:36.493Z,60.00
2018-05-23T03:35:36.514Z,64.00
2018-05-23T03:36:36.458Z,72.00
2018-05-23T03:37:36.411Z,80.00
2018-05-23T03:38:36.432Z,84.00
2018-05-23T03:39:36.361Z,92.00
2018-05-23T03:40:36.448Z,104.00
2018-05-23T03:41:36.326Z,108.00
2018-05-23T03:42:36.347Z,112.00
2018-05-23T03:43:36.273Z,124.00
2018-05-23T03:44:36.282Z,132.00
2018-05-23T03:45:48.255Z,144.00
2018-05-23T03:46:36.201Z,152.00
2018-05-23T03:47:36.254Z,160.00
2018-05-23T03:48:36.170Z,172.00
2018-05-23T03:49:36.190Z,176.00
2018-05-23T03:50:36.118Z,184.00
2018-05-23T03:51:41.726Z,192.00
2018-05-23T03:52:36.098Z,200.00
2018-05-23T03:53:36.120Z,212.00
2018-05-23T03:54:36.043Z,216.00
2018-05-23T03:55:36.137Z,220.00
2018-05-23T03:56:36.001Z,224.00
2018-05-23T03:57:36.049Z,224.00
2018-05-23T03:58:35.939Z,224.00
2018-05-23T03:59:35.963Z,224.00
2018-05-23T04:00:35.910Z,228.00
2018-05-23T04:01:35.892Z,232.00
2018-05-23T04:02:35.867Z,236.00
2018-05-23T04:03:35.872Z,236.00
2018-05-23T04:04:35.857Z,240.00
2018-05-23T04:05:35.890Z,244.00
2018-05-23T04:06:35.772Z,244.00
2018-05-23T04:07:36.837Z,248.00
2018-05-23T04:08:35.749Z,248.00
2018-05-23T04:09:40.861Z,252.00
2018-05-23T04:10:35.680Z,256.00
2018-05-23T04:11:35.741Z,264.00
2018-05-23T04:12:35.632Z,272.00
2018-05-23T04:13:37.695Z,284.00
2018-05-23T04:14:35.597Z,300.00
2018-05-23T04:15:35.648Z,316.00
2018-05-23T04:16:35.552Z,336.00
2018-05-23T04:17:47.250Z,352.00
2018-05-23T04:18:35.489Z,364.00
2018-05-23T04:19:36.597Z,380.00
2018-05-23T04:20:35.473Z,404.00
2018-05-23T04:21:35.455Z,416.00
2018-05-23T04:22:37.476Z,436.00
2018-05-23T04:23:35.406Z,456.00
2018-05-23T04:24:35.413Z,472.00
2018-05-23T04:25:35.350Z,488.00
2018-05-23T04:26:35.451Z,508.00
2018-05-23T04:27:35.325Z,528.00
2018-05-23T04:28:35.304Z,552.00
2018-05-23T04:29:35.266Z,576.00
2018-05-23T04:30:35.373Z,600.00
2018-05-23T04:31:35.251Z,628.00
2018-05-23T04:32:37.331Z,660.00
2018-05-23T04:33:35.171Z,684.00
2018-05-23T04:34:35.182Z,716.00
2018-05-23T04:35:35.160Z,744.00
2018-05-23T04:36:35.144Z,768.00
2018-05-23T04:37:35.203Z,788.00
2018-05-23T04:38:35.068Z,804.00
2018-05-23T04:39:35.104Z,816.00
2018-05-23T04:40:35.025Z,820.00
2018-05-23T04:41:35.039Z,836.00
2018-05-23T04:42:35.018Z,852.00
2018-05-23T04:43:35.044Z,864.00
2018-05-23T04:44:34.943Z,868.00
2018-05-23T04:45:37.039Z,852.00
2018-05-23T04:46:34.887Z,836.00
2018-05-23T04:47:34.954Z,808.00
2018-05-23T04:48:34.888Z,772.00
2018-05-23T04:49:34.880Z,736.00
2018-05-23T04:50:34.810Z,720.00
2018-05-23T04:51:35.806Z,732.00
2018-05-23T04:52:34.761Z,740.00
2018-05-23T04:53:34.787Z,744.00
2018-05-23T04:54:34.719Z,748.00
2018-05-23T04:55:34.806Z,728.00
2018-05-23T04:56:34.669Z,740.00
2018-05-23T04:57:49.247Z,760.00
2018-05-23T04:58:34.629Z,792.00
2018-05-23T04:59:36.714Z,836.00
2018-05-23T05:00:34.572Z,904.00
2018-05-23T05:01:39.254Z,964.00
2018-05-23T05:02:34.519Z,1020.00
2018-05-23T05:03:34.511Z,1068.00
2018-05-23T05:04:34.493Z,1108.00
2018-05-23T05:05:34.465Z,1140.00
2018-05-23T05:06:34.508Z,1164.00
2018-05-23T05:07:34.414Z,1188.00
2018-05-23T05:08:34.479Z,1212.00
2018-05-23T05:09:34.372Z,1220.00
2018-05-23T05:10:34.383Z,1232.00
2018-05-23T05:11:34.344Z,1236.00
2018-05-23T05:12:34.300Z,1244.00
2018-05-23T05:13:34.309Z,1256.00
2018-05-23T05:14:34.252Z,1268.00
2018-05-23T05:15:39.240Z,1288.00
2018-05-23T05:16:34.237Z,1304.00
2018-05-23T05:17:34.234Z,1320.00
2018-05-23T05:18:34.177Z,1332.00
2018-05-23T05:19:34.152Z,1352.00
2018-05-23T05:20:34.149Z,1396.00
2018-05-23T05:21:34.167Z,1456.00
2018-05-23T05:22:34.093Z,1524.00
2018-05-23T05:23:36.126Z,1596.00
2018-05-23T05:24:34.052Z,1664.00
2018-05-23T05:25:34.075Z,1732.00
2018-05-23T05:26:33.995Z,1800.00
2018-05-23T05:27:33.975Z,1860.00
2018-05-23T05:28:35.118Z,1912.00
2018-05-23T05:29:33.919Z,1960.00
2018-05-23T05:30:34.942Z,2012.00
2018-05-23T05:31:33.940Z,2076.00
2018-05-23T05:32:35.995Z,2140.00
2018-05-23T05:33:33.837Z,2216.00
2018-05-23T05:34:33.842Z,2292.00
2018-05-23T05:35:33.823Z,2376.00
2018-05-23T05:36:34.877Z,2452.00
2018-05-23T05:37:33.749Z,2504.00
2018-05-23T05:38:33.730Z,2548.00
2018-05-23T05:39:34.107Z,2592.00
2018-05-23T05:40:33.688Z,2640.00
2018-05-23T05:41:33.990Z,2700.00
2018-05-23T05:42:33.929Z,2768.00
2018-05-23T05:43:39.325Z,2864.00
2018-05-23T05:44:33.646Z,2912.00
2018-05-23T05:45:34.643Z,2936.00
2018-05-23T05:46:33.562Z,2928.00
2018-05-23T05:47:34.649Z,2916.00
2018-05-23T05:48:33.523Z,2884.00
2018-05-23T05:49:34.583Z,2876.00
2018-05-23T05:50:33.513Z,2924.00
2018-05-23T05:51:33.544Z,2972.00
2018-05-23T05:52:33.425Z,2980.00
2018-05-23T05:53:33.490Z,2980.00
2018-05-23T05:54:33.380Z,2996.00
2018-05-23T05:55:33.392Z,3084.00
2018-05-23T05:56:33.347Z,3196.00
2018-05-23T05:57:33.419Z,3292.00
2018-05-23T05:58:33.285Z,3360.00
2018-05-23T05:59:39.329Z,3400.00
2018-05-23T06:00:33.259Z,3464.00
2018-05-23T06:01:38.832Z,3508.00
2018-05-23T06:02:33.200Z,3580.00
2018-05-23T06:03:33.305Z,3688.00
2018-05-23T06:04:33.150Z,3788.00
2018-05-23T06:05:33.260Z,3800.00
2018-05-23T06:06:33.111Z,3752.00
2018-05-23T06:07:39.801Z,3612.00
2018-05-23T06:08:33.057Z,3476.00
2018-05-23T06:09:33.102Z,3332.00
2018-05-23T06:10:33.014Z,3240.00
2018-05-23T06:11:33.069Z,3164.00
2018-05-23T06:12:32.972Z,3048.00
2018-05-23T06:13:32.964Z,2960.00
2018-05-23T06:14:32.936Z,2876.00
2018-05-23T06:15:34.942Z,2824.00
2018-05-23T06:16:32.879Z,2840.00
2018-05-23T06:17:32.939Z,2840.00
2018-05-23T06:18:32.865Z,2816.00
2018-05-23T06:19:32.914Z,2796.00
2018-05-23T06:20:32.793Z,2676.00
2018-05-23T06:21:32.775Z,2588.00
2018-05-23T06:22:38.876Z,2488.00
2018-05-23T06:23:32.738Z,2420.00
2018-05-23T06:24:32.749Z,2376.00
2018-05-23T06:25:32.689Z,2444.00
2018-05-23T06:26:32.771Z,2576.00
2018-05-23T06:27:32.645Z,2780.00
2018-05-23T06:28:32.620Z,3048.00
2018-05-23T06:29:32.677Z,3296.00
2018-05-23T06:30:32.580Z,3488.00
2018-05-23T06:31:32.622Z,3584.00
2018-05-23T06:32:32.530Z,3580.00
2018-05-23T06:33:33.639Z,3524.00
2018-05-23T06:34:32.485Z,3500.00
2018-05-23T06:35:32.534Z,3504.00
2018-05-23T06:36:32.462Z,3640.00
2018-05-23T06:37:32.542Z,3860.00
2018-05-23T06:38:32.402Z,4100.00
2018-05-23T06:39:33.468Z,4288.00
2018-05-23T06:40:32.357Z,4448.00
2018-05-23T06:41:32.492Z,4548.00
2018-05-23T06:42:32.458Z,4588.00
2018-05-23T06:43:32.699Z,4692.00
2018-05-23T06:44:32.275Z,4856.00
2018-05-23T06:45:32.292Z,5008.00
2018-05-23T06:46:32.237Z,5076.00
2018-05-23T06:47:32.315Z,5080.00
2018-05-23T06:48:32.217Z,5056.00
2018-05-23T06:49:32.227Z,4992.00
2018-05-23T06:50:32.113Z,4948.00
2018-05-23T06:51:32.249Z,4920.00
2018-05-23T06:52:32.080Z,4924.00
2018-05-23T06:53:32.068Z,4928.00
2018-05-23T06:54:32.316Z,4912.00
2018-05-23T06:55:32.395Z,4868.00
2018-05-23T06:56:32.011Z,4840.00
2018-05-23T06:57:32.068Z,4848.00
2018-05-23T06:58:31.962Z,4872.00
2018-05-23T06:59:31.975Z,4844.00
2018-05-23T07:00:31.904Z,4772.00
2018-05-23T07:01:31.985Z,4660.00
2018-05-23T07:02:31.854Z,4528.00
2018-05-23T07:03:32.916Z,4404.00
2018-05-23T07:04:31.815Z,4316.00
2018-05-23T07:05:36.830Z,4280.00
2018-05-23T07:06:31.775Z,4292.00
2018-05-23T07:07:31.823Z,4348.00
2018-05-23T07:08:31.737Z,4440.00
2018-05-23T07:09:31.841Z,4552.00
2018-05-23T07:10:31.714Z,4644.00
2018-05-23T07:11:31.826Z,4716.00
2018-05-23T07:12:31.638Z,4776.00
2018-05-23T07:13:32.680Z,4824.00
2018-05-23T07:14:31.581Z,4856.00
2018-05-23T07:15:32.805Z,4960.00
2018-05-23T07:16:31.552Z,5104.00
2018-05-23T07:17:31.543Z,5248.00
2018-05-23T07:18:31.587Z,5372.00
2018-05-23T07:19:31.468Z,5468.00
2018-05-23T07:20:33.627Z,5560.00
2018-05-23T07:21:32.173Z,5656.00
2018-05-23T07:22:35.206Z,5748.00
2018-05-23T07:23:31.843Z,5816.00
2018-05-23T07:24:34.432Z,5864.00
2018-05-23T07:25:32.084Z,5884.00
2018-05-23T07:26:31.372Z,5880.00
2018-05-23T07:27:31.340Z,5852.00
2018-05-23T07:28:31.407Z,5792.00
2018-05-23T07:29:31.258Z,5700.00
2018-05-23T07:30:31.228Z,5616.00
2018-05-23T07:31:31.222Z,5488.00
2018-05-23T07:32:31.199Z,5324.00
2018-05-23T07:33:31.167Z,5184.00
2018-05-23T07:34:31.213Z,5092.00
2018-05-23T07:35:31.120Z,5072.00
2018-05-23T07:36:31.161Z,5172.00
2018-05-23T07:37:31.099Z,5340.00
2018-05-23T07:38:31.046Z,5516.00
2018-05-23T07:39:31.034Z,5640.00
2018-05-23T07:40:31.017Z,5736.00
2018-05-23T07:41:30.995Z,5820.00
2018-05-23T07:42:30.996Z,5864.00
2018-05-23T07:43:30.946Z,5904.00
2018-05-23T07:44:30.928Z,5948.00
2018-05-23T07:45:30.885Z,6016.00
2018-05-23T07:46:30.882Z,6100.00
2018-05-23T07:47:30.851Z,6180.00
2018-05-23T07:48:30.942Z,6240.00
2018-05-23T07:49:30.800Z,6312.00
2018-05-23T07:50:30.782Z,6388.00
2018-05-23T07:51:30.789Z,6488.00
2018-05-23T07:52:30.749Z,6572.00
2018-05-23T07:53:30.721Z,6640.00
2018-05-23T07:54:30.781Z,6676.00
2018-05-23T07:55:30.672Z,6684.00
2018-05-23T07:56:30.685Z,6692.00
2018-05-23T07:57:30.631Z,6684.00
2018-05-23T07:58:30.709Z,6680.00
2018-05-23T07:59:30.601Z,6652.00
2018-05-23T08:00:31.601Z,6632.00
2018-05-23T08:01:30.539Z,6604.00
2018-05-23T08:02:30.573Z,6568.00
2018-05-23T08:03:30.492Z,6544.00
2018-05-23T08:04:30.505Z,6524.00
2018-05-23T08:05:30.459Z,6516.00
2018-05-23T08:06:31.543Z,6504.00
2018-05-23T08:07:30.402Z,6512.00
2018-05-23T08:08:30.425Z,6528.00
2018-05-23T08:09:30.340Z,6560.00
2018-05-23T08:10:30.431Z,6592.00
2018-05-23T08:11:30.304Z,6612.00
2018-05-23T08:12:30.337Z,6612.00
2018-05-23T08:13:30.265Z,6616.00
2018-05-23T08:14:30.375Z,6616.00
2018-05-23T08:15:30.216Z,6636.00
2018-05-23T08:16:30.189Z,6664.00
2018-05-23T08:17:30.170Z,6696.00
2018-05-23T08:18:30.149Z,6724.00
2018-05-23T08:19:30.246Z,6732.00
2018-05-23T08:20:30.134Z,6716.00
2018-05-23T08:21:30.071Z,6716.00
2018-05-23T08:22:30.091Z,6724.00
2018-05-23T08:23:30.069Z,6720.00
2018-05-23T08:24:30.105Z,6756.00
2018-05-23T08:25:30.073Z,6788.00
2018-05-23T08:26:29.969Z,6844.00
2018-05-23T08:27:31.020Z,6896.00
2018-05-23T08:28:29.943Z,6940.00
2018-05-23T08:29:30.006Z,6964.00
2018-05-23T08:30:29.888Z,7040.00
2018-05-23T08:31:29.863Z,7120.00
2018-05-23T08:32:29.833Z,7152.00
2018-05-23T08:33:29.835Z,7160.00
2018-05-23T08:34:29.847Z,7216.00
2018-05-23T08:35:29.762Z,7280.00
2018-05-23T08:36:29.833Z,7396.00
2018-05-23T08:37:29.749Z,7492.00
2018-05-23T08:38:29.739Z,7584.00
2018-05-23T08:39:29.669Z,7660.00
2018-05-23T08:40:29.774Z,7700.00
2018-05-23T08:41:29.638Z,7692.00
2018-05-23T08:42:30.711Z,7704.00
2018-05-23T08:43:29.596Z,7648.00
2018-05-23T08:44:29.577Z,7556.00
2018-05-23T08:45:29.583Z,7412.00
2018-05-23T08:46:29.617Z,7260.00
2018-05-23T08:47:29.513Z,7100.00
2018-05-23T08:48:29.525Z,6976.00
2018-05-23T08:49:29.526Z,6848.00
2018-05-23T08:50:29.443Z,6708.00
2018-05-23T08:51:29.432Z,6540.00
2018-05-23T08:52:29.398Z,6376.00
2018-05-23T08:53:30.477Z,6228.00
2018-05-23T08:54:29.347Z,6068.00
2018-05-23T08:55:29.361Z,5988.00
2018-05-23T08:56:29.309Z,5892.00
2018-05-23T08:57:29.286Z,5756.00
2018-05-23T08:58:29.339Z,5712.00
2018-05-23T08:59:29.262Z,5812.00
2018-05-23T09:00:29.221Z,6000.00
2018-05-23T09:01:29.197Z,6192.00
2018-05-23T09:02:29.165Z,6364.00
2018-05-23T09:03:29.158Z,6516.00
2018-05-23T09:04:29.133Z,6620.00
2018-05-23T09:05:29.100Z,6656.00
2018-05-23T09:06:29.083Z,6688.00
2018-05-23T09:07:30.183Z,6744.00
2018-05-23T09:08:29.028Z,6768.00
2018-05-23T09:09:30.075Z,6780.00
2018-05-23T09:10:28.996Z,6796.00
2018-05-23T09:11:31.064Z,6764.00
2018-05-23T09:12:29.040Z,6716.00
2018-05-23T09:13:28.936Z,6672.00
2018-05-23T09:14:28.914Z,6620.00
2018-05-23T09:15:28.986Z,6640.00
2018-05-23T09:16:28.878Z,6764.00
2018-05-23T09:17:28.839Z,6796.00
2018-05-23T09:18:28.829Z,6756.00
2018-05-23T09:19:28.872Z,6724.00
2018-05-23T09:20:28.788Z,6644.00
2018-05-23T09:21:28.761Z,6616.00
2018-05-23T09:22:28.730Z,6724.00
2018-05-23T09:23:28.741Z,6948.00
2018-05-23T09:24:28.683Z,7232.00
2018-05-23T09:25:28.722Z,7548.00
2018-05-23T09:26:28.635Z,7924.00
2018-05-23T09:27:28.625Z,8304.00
2018-05-23T09:28:28.611Z,8628.00
2018-05-23T09:29:28.669Z,8804.00
2018-05-23T09:30:28.557Z,8824.00
2018-05-23T09:31:28.586Z,8764.00
2018-05-23T09:32:28.517Z,8472.00
2018-05-23T09:33:28.602Z,8352.00
2018-05-23T09:34:28.481Z,8544.00
2018-05-23T09:35:28.533Z,8704.00
2018-05-23T09:36:28.424Z,8724.00
2018-05-23T09:37:28.435Z,8696.00
2018-05-23T09:38:28.412Z,8680.00
2018-05-23T09:39:28.438Z,8596.00
2018-05-23T09:40:28.333Z,8240.00
2018-05-23T09:41:28.357Z,8008.00
2018-05-23T09:42:28.288Z,8032.00
2018-05-23T09:43:28.360Z,8296.00
2018-05-23T09:44:28.243Z,8396.00
2018-05-23T09:45:28.248Z,8488.00
2018-05-23T09:46:32.913Z,8592.00
2018-05-23T09:47:28.182Z,8720.00
2018-05-23T09:48:28.187Z,8656.00
2018-05-23T09:49:28.139Z,8568.00
2018-05-23T09:50:29.253Z,8468.00
2018-05-23T09:51:28.126Z,8388.00
2018-05-23T09:52:28.080Z,8068.00
2018-05-23T09:53:28.171Z,7716.00
2018-05-23T09:54:28.038Z,7520.00
2018-05-23T09:55:28.150Z,7368.00
2018-05-23T09:56:28.003Z,7272.00
2018-05-23T09:57:28.984Z,7196.00
2018-05-23T09:58:27.977Z,7108.00
2018-05-23T09:59:27.971Z,7008.00
2018-05-23T10:00:27.904Z,7016.00
2018-05-23T10:01:28.017Z,7124.00
2018-05-23T10:02:27.896Z,7220.00
2018-05-23T10:03:27.972Z,7396.00
2018-05-23T10:04:27.803Z,7632.00
2018-05-23T10:05:27.859Z,7872.00
2018-05-23T10:06:27.788Z,8116.00
2018-05-23T10:07:27.849Z,8292.00
2018-05-23T10:08:27.739Z,8496.00
2018-05-23T10:09:27.802Z,8476.00
2018-05-23T10:10:27.701Z,8380.00
2018-05-23T10:11:27.724Z,8372.00
2018-05-23T10:12:27.665Z,8316.00
2018-05-23T10:13:27.752Z,8240.00
2018-05-23T10:14:27.614Z,8156.00
2018-05-23T10:15:27.625Z,8084.00
2018-05-23T10:16:27.576Z,7948.00
2018-05-23T10:17:27.663Z,7856.00
2018-05-23T10:18:27.522Z,7748.00
2018-05-23T10:19:27.544Z,7684.00
2018-05-23T10:20:27.471Z,7648.00
2018-05-23T10:21:27.463Z,7576.00
2018-05-23T10:22:27.419Z,7604.00
2018-05-23T10:23:27.461Z,7632.00
2018-05-23T10:24:27.413Z,7688.00
2018-05-23T10:25:27.492Z,7700.00
2018-05-23T10:26:27.451Z,7660.00
2018-05-23T10:27:27.408Z,7640.00
2018-05-23T10:28:27.319Z,7584.00
2018-05-23T10:29:27.298Z,7540.00
2018-05-23T10:30:27.280Z,7468.00
2018-05-23T10:31:27.294Z,7388.00
2018-05-23T10:32:27.225Z,7296.00
2018-05-23T10:33:29.323Z,7244.00
2018-05-23T10:34:27.172Z,7244.00
2018-05-23T10:35:27.201Z,7284.00
2018-05-23T10:36:27.134Z,7344.00
2018-05-23T10:37:28.152Z,7396.00
2018-05-23T10:38:27.094Z,7412.00
2018-05-23T10:39:27.149Z,7428.00
2018-05-23T10:40:27.061Z,7528.00
2018-05-23T10:41:27.082Z,7612.00
2018-05-23T10:42:27.053Z,7620.00
2018-05-23T10:43:27.086Z,7560.00
2018-05-23T10:44:26.962Z,7436.00
2018-05-23T10:45:26.980Z,7252.00
2018-05-23T10:46:26.916Z,7088.00
2018-05-23T10:47:27.997Z,6984.00
2018-05-23T10:48:26.895Z,6924.00
2018-05-23T10:49:26.870Z,6912.00
2018-05-23T10:50:26.860Z,6936.00
2018-05-23T10:51:26.940Z,6952.00
2018-05-23T10:52:26.795Z,7008.00
2018-05-23T10:53:26.793Z,7128.00
2018-05-23T10:54:26.761Z,7300.00
2018-05-23T10:55:27.762Z,7568.00
2018-05-23T10:56:26.705Z,7788.00
2018-05-23T10:57:26.742Z,7884.00
2018-05-23T10:58:26.649Z,8140.00
2018-05-23T10:59:26.671Z,8372.00
2018-05-23T11:00:26.631Z,8508.00
2018-05-23T11:01:26.675Z,8612.00
2018-05-23T11:02:26.581Z,8712.00
2018-05-23T11:03:26.549Z,8744.00
2018-05-23T11:04:26.550Z,8776.00
2018-05-23T11:05:26.601Z,8760.00
2018-05-23T11:06:26.479Z,8668.00
2018-05-23T11:07:26.504Z,8532.00
2018-05-23T11:08:26.492Z,8408.00
2018-05-23T11:09:26.427Z,8336.00
2018-05-23T11:10:27.471Z,8336.00
2018-05-23T11:11:26.416Z,8288.00
2018-05-23T11:12:26.454Z,8184.00
2018-05-23T11:13:26.354Z,8080.00
2018-05-23T11:14:26.345Z,8040.00
2018-05-23T11:15:26.306Z,8032.00
2018-05-23T11:16:26.348Z,8056.00
2018-05-23T11:17:26.251Z,8044.00
2018-05-23T11:18:26.236Z,8020.00
2018-05-23T11:19:26.228Z,7956.00
2018-05-23T11:20:26.237Z,7860.00
2018-05-23T11:21:26.187Z,7836.00
2018-05-23T11:22:26.228Z,7932.00
2018-05-23T11:23:26.131Z,7948.00
2018-05-23T11:24:26.118Z,7844.00
2018-05-23T11:25:26.076Z,7744.00
2018-05-23T11:26:26.070Z,7784.00
2018-05-23T11:27:26.044Z,7864.00
2018-05-23T11:28:26.012Z,7844.00
2018-05-23T11:29:26.047Z,7644.00
2018-05-23T11:30:25.990Z,7400.00
2018-05-23T11:31:25.948Z,7180.00
2018-05-23T11:32:25.937Z,7120.00
2018-05-23T11:33:25.914Z,7156.00
2018-05-23T11:34:25.894Z,7136.00
2018-05-23T11:35:25.905Z,7116.00
2018-05-23T11:36:25.874Z,7132.00
2018-05-23T11:37:25.845Z,7152.00
2018-05-23T11:38:25.825Z,7220.00
2018-05-23T11:39:25.800Z,7244.00
2018-05-23T11:40:25.770Z,7268.00
2018-05-23T11:41:25.763Z,7256.00
2018-05-23T11:42:25.729Z,7252.00
2018-05-23T11:43:25.708Z,7216.00
2018-05-23T11:44:25.710Z,7148.00
2018-05-23T11:45:25.653Z,7096.00
2018-05-23T11:46:25.627Z,7060.00
2018-05-23T11:47:25.610Z,7004.00
2018-05-23T11:48:25.583Z,6920.00
2018-05-23T11:49:25.601Z,6896.00
2018-05-23T11:50:25.550Z,6880.00
2018-05-23T11:51:25.617Z,6892.00
2018-05-23T11:52:25.505Z,6908.00
2018-05-23T11:53:25.515Z,7036.00
2018-05-23T11:54:25.478Z,7172.00
2018-05-23T11:55:25.480Z,7332.00
2018-05-23T11:56:25.410Z,7432.00
2018-05-23T11:57:25.406Z,7464.00
2018-05-23T11:58:25.383Z,7496.00
2018-05-23T11:59:25.367Z,7512.00
2018-05-23T12:00:25.348Z,7504.00
2018-05-23T12:01:25.339Z,7520.00
2018-05-23T12:02:25.305Z,7552.00
2018-05-23T12:03:25.354Z,7576.00
2018-05-23T12:04:25.262Z,7584.00
2018-05-23T12:05:25.294Z,7588.00
2018-05-23T12:06:25.246Z,7564.00
2018-05-23T12:07:25.311Z,7512.00
2018-05-23T12:08:25.195Z,7420.00
2018-05-23T12:09:25.217Z,7280.00
2018-05-23T12:10:25.229Z,7108.00
2018-05-23T12:11:25.265Z,6916.00
2018-05-23T12:12:25.102Z,6724.00
2018-05-23T12:13:25.063Z,6536.00
2018-05-23T12:14:25.046Z,6344.00
2018-05-23T12:15:25.038Z,6124.00
2018-05-23T12:16:25.013Z,5936.00
2018-05-23T12:17:24.985Z,5760.00
2018-05-23T12:18:24.963Z,5700.00
2018-05-23T12:19:24.988Z,5664.00
2018-05-23T12:20:24.925Z,5648.00
2018-05-23T12:21:24.973Z,5672.00
2018-05-23T12:22:24.871Z,5668.00
2018-05-23T12:23:24.906Z,5672.00
2018-05-23T12:24:24.895Z,5680.00
2018-05-23T12:25:24.904Z,5684.00
2018-05-23T12:26:24.933Z,5680.00
2018-05-23T12:27:24.824Z,5672.00